Time;durP1;ratioP1;P1;durP2;ratioP2;P2;SDS_P1;SDS_P2;PMS_P1;PMS_P2;Temp;Humidity;BMP_temperature;BMP_pressure;BME280_temperature;BME280_humidity;BME280_pressure;Samples;Min_cycle;Max_cycle;Signal;HPM_P1;HPM_P2
2022/03/26 00:01:41;;;;;;;21.90;12.50;;;10.40;35.70;;;10.40;30.66;95784.53;5072369;28;20490;-56
2022/03/26 00:04:08;;;;;;;19.00;11.50;;;10.30;35.50;;;10.32;31.03;95786.06;5081815;28;20489;-56
2022/03/26 00:06:36;;;;;;;45.60;14.10;;;10.20;35.50;;;10.25;30.86;95790.09;5069764;28;20485;-57
2022/03/26 00:09:03;;;;;;;49.07;13.73;;;10.20;35.50;;;10.17;31.24;95790.66;5068889;28;20455;-59
2022/03/26 00:11:31;;;;;;;27.97;11.87;;;10.10;35.50;;;10.09;31.15;95798.28;5066637;28;21052;-55
2022/03/26 00:13:58;;;;;;;18.60;9.73;;;10.00;35.80;;;10.00;31.08;95791.91;5069193;28;20463;-56
2022/03/26 00:16:25;;;;;;;19.83;9.40;;;9.90;36.90;;;9.89;31.34;95791.88;5069917;28;20950;-57
2022/03/26 00:18:54;;;;;;;18.57;10.43;;;9.80;36.80;;;9.87;31.48;95799.88;5082307;28;20477;-58
2022/03/26 00:21:21;;;;;;;22.57;11.43;;;9.70;37.40;;;9.85;31.57;95791.25;5067712;28;20450;-57
2022/03/26 00:23:49;;;;;;;32.73;11.77;;;9.70;37.40;;;9.82;31.66;95788.84;5068778;28;20586;-58
2022/03/26 00:26:17;;;;;;;29.53;11.93;;;9.70;37.40;;;9.80;31.98;95796.00;5074451;28;20538;-57
2022/03/26 00:28:44;;;;;;;22.20;11.57;;;9.70;37.70;;;9.78;31.81;95796.13;5070265;28;20548;-57
2022/03/26 00:31:12;;;;;;;24.10;12.40;;;9.70;37.90;;;9.74;32.09;95797.28;5077013;28;20460;-56
2022/03/26 00:33:40;;;;;;;21.73;11.50;;;9.60;37.80;;;9.72;31.89;95790.50;5070127;28;20537;-57
2022/03/26 00:36:09;;;;;;;20.30;11.77;;;9.60;37.90;;;9.66;31.54;95787.34;5070762;28;20456;-57
2022/03/26 00:38:36;;;;;;;24.37;11.93;;;9.60;37.80;;;9.62;32.07;95795.53;5076580;28;20571;-57
2022/03/26 00:41:03;;;;;;;29.13;11.67;;;9.60;38.10;;;9.58;33.00;95800.19;5068368;28;20465;-58
2022/03/26 00:43:31;;;;;;;24.10;10.83;;;9.50;38.50;;;9.54;32.43;95800.53;5067670;28;20516;-57
2022/03/26 00:45:58;;;;;;;21.90;10.77;;;9.40;38.80;;;9.47;32.85;95805.38;5066919;28;20972;-57
2022/03/26 00:48:25;;;;;;;21.50;11.50;;;9.40;38.60;;;9.41;33.07;95800.56;5071415;28;20482;-57
2022/03/26 00:50:52;;;;;;;24.37;12.10;;;9.30;38.80;;;9.35;32.67;95803.63;5072375;28;20465;-57
2022/03/26 00:53:21;;;;;;;238.30;85.67;;;9.20;38.80;;;9.26;33.17;95807.75;5068088;28;20995;-58
2022/03/26 00:55:48;;;;;;;35.83;16.13;;;9.20;38.80;;;9.20;33.37;95810.81;5060570;28;20957;-57
2022/03/26 00:58:16;;;;;;;23.37;9.97;;;9.10;39.20;;;9.13;33.34;95810.41;5063751;28;20480;-57
2022/03/26 01:00:43;;;;;;;21.53;9.17;;;9.10;39.80;;;9.06;33.77;95815.25;5076714;28;20462;-57
2022/03/26 01:03:10;;;;;;;27.83;11.27;;;9.00;39.30;;;9.00;33.39;95814.81;5070019;28;20498;-58
2022/03/26 01:05:38;;;;;;;23.40;10.30;;;8.90;40.00;;;8.94;34.06;95814.31;5071079;28;21013;-57
2022/03/26 01:08:06;;;;;;;20.03;10.70;;;8.90;39.90;;;8.90;33.70;95812.00;5072772;28;20932;-56
2022/03/26 01:10:34;;;;;;;21.27;11.30;;;8.80;40.20;;;8.86;34.81;95818.41;5064800;28;20469;-56
2022/03/26 01:13:02;;;;;;;24.50;11.43;;;8.80;40.80;;;8.82;34.10;95827.44;5070899;28;20477;-57
2022/03/26 01:15:29;;;;;;;18.13;10.13;;;8.70;40.40;;;8.76;34.14;95828.69;5072626;28;20459;-57
2022/03/26 01:17:56;;;;;;;27.80;10.93;;;8.70;40.30;;;8.73;34.65;95829.72;5068986;28;20489;-57
2022/03/26 01:20:24;;;;;;;28.87;9.37;;;8.60;40.70;;;8.69;34.52;95840.53;5071137;28;20894;-58
2022/03/26 01:22:51;;;;;;;21.73;9.30;;;8.60;40.20;;;8.61;34.66;95839.28;5074997;28;20704;-58
2022/03/26 01:25:19;;;;;;;19.43;9.40;;;8.60;40.20;;;8.55;34.33;95841.47;5067077;28;20465;-57
2022/03/26 01:27:47;;;;;;;14.90;8.83;;;8.50;40.60;;;8.51;34.75;95842.63;5075347;28;20481;-57
2022/03/26 01:30:15;;;;;;;17.53;9.87;;;8.50;40.60;;;8.47;34.33;95843.78;5074892;28;20464;-55
2022/03/26 01:32:43;;;;;;;32.67;10.20;;;8.40;41.70;;;8.44;35.37;95844.81;5066303;28;20482;-57
2022/03/26 01:35:10;;;;;;;19.33;10.97;;;8.40;41.40;;;8.42;34.82;95841.44;5068520;28;20534;-56
2022/03/26 01:37:38;;;;;;;19.57;9.40;;;8.40;41.30;;;8.41;35.58;95845.84;5069329;28;20474;-57
2022/03/26 01:40:07;;;;;;;19.27;10.27;;;8.30;41.40;;;8.40;35.74;95843.31;5070712;28;20528;-56
2022/03/26 01:42:34;;;;;;;86.47;31.33;;;8.30;41.40;;;8.38;35.37;95853.03;5073020;28;20474;-57
2022/03/26 01:45:03;;;;;;;47.13;20.00;;;8.30;41.70;;;8.34;35.86;95847.19;5067792;28;20908;-57
2022/03/26 01:47:31;;;;;;;41.17;16.90;;;8.30;41.80;;;8.31;35.28;95838.69;5070082;28;20843;-57
2022/03/26 01:49:58;;;;;;;38.87;14.67;;;8.20;41.80;;;8.26;36.20;95839.81;5076359;28;20466;-58
2022/03/26 01:52:25;;;;;;;30.33;15.77;;;8.20;41.80;;;8.28;35.64;95844.13;5073515;28;20475;-57
2022/03/26 01:54:53;;;;;;;27.67;11.53;;;8.20;42.00;;;8.25;35.81;95846.00;5069818;28;20462;-58
2022/03/26 01:57:20;;;;;;;22.43;11.63;;;8.20;42.10;;;8.22;35.45;95840.97;5068261;28;20479;-57
2022/03/26 01:59:47;;;;;;;30.63;10.60;;;8.20;42.00;;;8.17;35.70;95837.81;5065285;28;20934;-56
2022/03/26 02:02:16;;;;;;;28.43;10.37;;;8.10;42.30;;;8.14;35.67;95838.00;5073531;28;21044;-57
2022/03/26 02:04:43;;;;;;;20.47;9.97;;;8.10;42.30;;;8.11;35.46;95842.63;5070424;28;20566;-57
2022/03/26 02:07:10;;;;;;;30.83;10.07;;;8.10;42.10;;;8.06;36.58;95842.94;5062676;28;20479;-57
2022/03/26 02:09:38;;;;;;;18.37;9.70;;;8.00;42.30;;;8.01;36.07;95842.38;5063306;28;20504;-58
2022/03/26 02:12:22;;;;;;;21.13;11.73;;;8.00;42.30;;;8.00;36.27;95846.78;5076011;28;20479;-57
2022/03/26 02:14:50;;;;;;;22.60;9.97;;;7.90;42.40;;;7.99;36.61;95849.50;5066216;28;20967;-57
2022/03/26 02:17:18;;;;;;;23.53;11.10;;;7.90;42.80;;;7.98;36.72;95842.56;5071371;28;20482;-56
2022/03/26 02:19:50;;;;;;;20.43;11.20;;;7.90;42.70;;;7.96;36.28;95855.75;5077082;28;20453;-57
2022/03/26 02:22:17;;;;;;;26.03;9.87;;;7.90;42.90;;;7.94;36.47;95851.59;5062398;28;21233;-57
2022/03/26 02:24:44;;;;;;;22.10;11.17;;;7.90;42.90;;;7.89;36.99;95860.56;5067656;28;20619;-57
2022/03/26 02:27:11;;;;;;;20.70;10.87;;;7.90;43.10;;;7.87;37.01;95862.44;5068949;28;20479;-56
2022/03/26 02:29:39;;;;;;;25.17;12.50;;;7.80;43.50;;;7.84;37.48;95861.81;5066664;28;20462;-56
2022/03/26 02:32:07;;;;;;;29.10;10.53;;;7.80;43.70;;;7.82;37.37;95868.91;5073319;28;21061;-58
2022/03/26 02:34:35;;;;;;;21.50;10.20;;;7.80;43.40;;;7.78;37.33;95860.44;5073319;28;20450;-57
2022/03/26 02:37:04;;;;;;;16.57;9.47;;;7.80;43.70;;;7.76;36.75;95858.84;5068266;28;20470;-57
2022/03/26 02:39:32;;;;;;;26.83;10.40;;;7.70;43.40;;;7.71;37.37;95864.34;5074033;28;20454;-56
2022/03/26 02:41:59;;;;;;;19.03;10.30;;;7.70;44.10;;;7.67;37.09;95861.09;5067788;28;20463;-57
2022/03/26 02:44:26;;;;;;;19.63;9.43;;;7.70;44.00;;;7.63;37.95;95854.38;5069602;28;20930;-57
2022/03/26 02:46:53;;;;;;;35.30;11.67;;;7.60;44.00;;;7.62;37.09;95857.09;5071352;28;21009;-57
2022/03/26 02:49:21;;;;;;;17.17;8.87;;;7.60;43.90;;;7.59;37.60;95867.75;5072669;28;20832;-57
2022/03/26 02:51:48;;;;;;;13.53;9.07;;;7.60;43.80;;;7.57;37.59;95860.00;5071771;28;20570;-57
2022/03/26 02:54:19;;;;;;;26.40;10.13;;;7.60;43.60;;;7.54;37.50;95866.28;5069777;28;20474;-57
2022/03/26 02:56:47;;;;;;;16.07;9.77;;;7.50;43.50;;;7.50;37.97;95858.72;5065546;28;20474;-57
2022/03/26 02:59:14;;;;;;;27.47;11.30;;;7.50;44.10;;;7.44;37.92;95865.19;5069452;28;20463;-56
2022/03/26 03:01:41;;;;;;;19.53;9.93;;;7.50;44.70;;;7.39;38.17;95864.63;5073052;28;20481;-57
2022/03/26 03:04:09;;;;;;;27.87;10.93;;;7.40;44.10;;;7.36;37.54;95870.88;5066149;28;20489;-55
2022/03/26 03:06:36;;;;;;;31.17;11.00;;;7.40;44.10;;;7.32;37.70;95871.16;5065925;28;20544;-57
2022/03/26 03:09:03;;;;;;;35.40;16.50;;;7.30;44.20;;;7.27;38.07;95868.00;5068673;28;20498;-55
2022/03/26 03:11:32;;;;;;;23.63;12.60;;;7.30;44.70;;;7.25;38.26;95875.09;5062268;28;20469;-57
2022/03/26 03:14:00;;;;;;;28.17;11.30;;;7.20;44.30;;;7.22;37.77;95880.50;5071183;28;20835;-59
2022/03/26 03:16:28;;;;;;;20.17;10.97;;;7.20;44.40;;;7.18;37.88;95875.47;5070942;28;20461;-56
2022/03/26 03:18:55;;;;;;;21.10;12.30;;;7.20;44.60;;;7.15;38.21;95880.88;5066600;28;20469;-57
2022/03/26 03:21:22;;;;;;;24.83;12.90;;;7.20;44.60;;;7.10;37.86;95877.72;5073878;28;20933;-58
2022/03/26 03:23:50;;;;;;;19.67;11.83;;;7.10;44.70;;;7.07;38.10;95880.53;5061218;28;20497;-56
2022/03/26 03:26:17;;;;;;;21.50;11.53;;;7.10;44.90;;;7.04;38.75;95878.09;5064922;28;21050;-57
2022/03/26 03:28:46;;;;;;;29.00;13.30;;;7.00;45.20;;;7.01;39.02;95878.28;5065362;28;20455;-58
2022/03/26 03:31:13;;;;;;;21.70;12.73;;;7.00;45.20;;;6.97;38.55;95875.03;5071584;28;20945;-56
2022/03/26 03:33:40;;;;;;;43.50;12.93;;;7.00;45.00;;;6.94;38.74;95876.97;5065287;28;20450;-57
2022/03/26 03:36:08;;;;;;;28.70;11.73;;;6.90;44.90;;;6.92;39.31;95878.84;5076346;28;20477;-58
2022/03/26 03:38:35;;;;;;;28.47;11.80;;;6.90;45.20;;;6.89;39.05;95877.25;5071785;28;20486;-58
2022/03/26 03:41:02;;;;;;;26.83;11.40;;;6.90;45.30;;;6.87;39.12;95881.72;5068779;28;20462;-56
2022/03/26 03:43:29;;;;;;;24.57;11.50;;;6.90;45.60;;;6.85;39.51;95880.13;5072117;28;20877;-57
2022/03/26 03:45:58;;;;;;;23.37;11.60;;;6.80;46.10;;;6.82;38.74;95887.22;5070392;28;20497;-58
2022/03/26 03:48:25;;;;;;;28.67;13.73;;;6.80;45.50;;;6.80;39.18;95883.88;5067107;28;20516;-57
2022/03/26 03:50:53;;;;;;;21.97;11.60;;;6.80;45.90;;;6.79;39.33;95890.03;5075250;28;20458;-58
2022/03/26 03:53:20;;;;;;;25.07;11.80;;;6.80;46.50;;;6.76;39.07;95890.22;5074953;28;20485;-57
2022/03/26 03:55:47;;;;;;;21.10;10.93;;;6.80;45.70;;;6.74;38.92;95893.84;5071468;28;20458;-57
2022/03/26 03:58:14;;;;;;;20.30;10.37;;;6.80;45.40;;;6.71;39.33;95889.66;5070127;28;20474;-59
2022/03/26 04:00:42;;;;;;;20.17;10.70;;;6.70;45.70;;;6.68;39.68;95896.81;5068421;28;20466;-57
2022/03/26 04:03:10;;;;;;;22.50;10.83;;;6.70;45.80;;;6.61;39.67;95897.19;5067334;28;20478;-57
2022/03/26 04:05:39;;;;;;;23.77;11.80;;;6.60;45.90;;;6.58;39.01;95904.38;5072896;28;20543;-56
2022/03/26 04:08:06;;;;;;;19.40;11.17;;;6.60;45.70;;;6.53;39.60;95902.03;5067572;28;20486;-56
2022/03/26 04:10:34;;;;;;;22.83;10.13;;;6.60;45.80;;;6.48;39.33;95901.47;5075737;28;20464;-58
2022/03/26 04:13:01;;;;;;;21.80;11.60;;;6.50;45.60;;;6.46;39.25;95909.38;5079314;28;20473;-58
2022/03/26 04:15:29;;;;;;;20.53;9.93;;;6.50;45.50;;;6.44;39.75;95906.03;5071249;28;20458;-57
2022/03/26 04:17:56;;;;;;;32.30;10.63;;;6.50;46.30;;;6.42;39.11;95913.09;5071696;28;20478;-56
2022/03/26 04:20:25;;;;;;;41.20;18.43;;;6.40;45.50;;;6.37;39.00;95912.53;5066084;28;20532;-57
2022/03/26 04:22:52;;;;;;;18.60;9.90;;;6.40;45.60;;;6.35;39.39;95918.75;5071492;28;20480;-57
2022/03/26 04:25:19;;;;;;;13.83;9.23;;;6.40;45.80;;;6.29;39.26;95922.59;5072781;28;20505;-56
2022/03/26 04:27:49;;;;;;;25.43;9.20;;;6.40;45.60;;;6.27;39.18;95921.81;5072832;28;20482;-58
2022/03/26 04:30:16;;;;;;;20.37;9.33;;;6.30;45.50;;;6.26;39.30;95928.00;5067760;28;20539;-58
2022/03/26 04:32:44;;;;;;;14.90;9.30;;;6.30;45.50;;;6.22;39.53;95929.91;5071224;28;20485;-55
2022/03/26 04:35:11;;;;;;;20.20;8.83;;;6.30;45.50;;;6.18;39.45;95930.19;5075074;28;20536;-56
2022/03/26 04:37:41;;;;;;;20.80;9.53;;;6.20;45.70;;;6.15;39.49;95930.34;5067633;28;20491;-57
2022/03/26 04:40:11;;;;;;;19.43;9.27;;;6.20;45.60;;;6.09;39.20;95936.78;5070734;28;20660;-57
2022/03/26 04:42:39;;;;;;;16.67;8.20;;;6.20;45.40;;;6.11;39.41;95929.69;5077235;28;20482;-57
2022/03/26 04:45:07;;;;;;;21.10;8.67;;;6.10;45.90;;;6.09;40.02;95942.84;5068156;28;20590;-56
2022/03/26 04:47:35;;;;;;;22.80;9.33;;;6.10;46.00;;;6.07;39.05;95934.25;5068606;28;20562;-58
2022/03/26 04:50:02;;;;;;;16.90;8.23;;;6.10;45.80;;;6.07;39.29;95947.31;5068532;28;20455;-57
2022/03/26 04:52:29;;;;;;;18.03;9.00;;;6.10;45.70;;;6.08;39.36;95945.53;5060162;28;20510;-57
2022/03/26 04:54:58;;;;;;;19.70;10.03;;;6.10;45.80;;;6.08;39.71;95943.75;5070583;28;20934;-57
2022/03/26 04:57:25;;;;;;;16.73;9.77;;;6.10;46.10;;;6.12;39.87;95946.19;5066540;28;20478;-58
2022/03/26 04:59:53;;;;;;;18.20;9.30;;;6.10;46.10;;;6.12;39.50;95947.06;5066803;28;20536;-57
2022/03/26 05:02:20;;;;;;;14.50;9.60;;;6.20;46.10;;;6.15;39.86;95953.84;5073091;28;20477;-57
2022/03/26 05:04:47;;;;;;;17.60;8.23;;;6.20;46.10;;;6.19;39.64;95948.38;5068397;28;20861;-58
2022/03/26 05:10:17;;;;;;;14.90;8.50;;;6.20;46.70;;;6.31;39.49;95952.06;5018026;28;20500;-57
2022/03/26 05:12:44;;;;;;;18.17;9.67;;;6.30;46.20;;;6.43;39.78;95951.38;5014919;28;20826;-57
2022/03/26 05:15:11;;;;;;;29.37;12.17;;;6.40;46.30;;;6.53;39.69;95961.31;5041552;28;20505;-57
2022/03/26 05:17:39;;;;;;;25.93;11.17;;;6.50;46.30;;;6.60;39.14;95957.38;5079845;28;20489;-57
2022/03/26 05:20:08;;;;;;;29.87;10.57;;;6.60;46.20;;;6.63;39.54;95955.47;5068922;28;20556;-57
2022/03/26 05:22:36;;;;;;;46.97;11.60;;;6.60;46.40;;;6.66;39.91;95958.81;5067841;28;20877;-57
2022/03/26 05:25:03;;;;;;;30.93;11.70;;;6.70;46.50;;;6.73;39.67;95953.13;5072902;28;20520;-56
2022/03/26 05:27:32;;;;;;;19.03;9.83;;;6.70;46.20;;;6.82;39.28;95957.84;5064843;28;20501;-58
2022/03/26 05:29:59;;;;;;;17.57;8.97;;;6.80;46.10;;;6.88;40.26;95959.25;5074276;28;20466;-57
2022/03/26 05:32:27;;;;;;;16.10;9.60;;;6.90;46.60;;;6.92;39.04;95958.13;5065071;28;20471;-57
2022/03/26 05:34:54;;;;;;;20.03;10.00;;;6.90;45.80;;;6.93;38.86;95962.44;5067392;28;20489;-57
2022/03/26 05:37:21;;;;;;;18.30;9.17;;;7.00;45.50;;;6.90;39.39;95959.16;5069441;28;20474;-58
2022/03/26 05:39:49;;;;;;;16.87;9.30;;;6.90;45.90;;;6.84;39.50;95952.50;5070627;28;20472;-57
2022/03/26 05:42:18;;;;;;;17.57;9.60;;;6.90;45.90;;;6.84;38.95;95962.16;5069792;28;20474;-58
2022/03/26 05:44:46;;;;;;;21.30;11.17;;;6.80;45.70;;;6.80;39.51;95964.94;5064906;28;20585;-57
2022/03/26 05:47:14;;;;;;;25.03;10.73;;;6.80;46.20;;;6.84;39.51;95965.59;5062843;28;20981;-58
2022/03/26 05:49:41;;;;;;;19.90;9.33;;;6.80;46.20;;;6.91;39.52;95974.78;5068031;28;20459;-57
2022/03/26 05:52:08;;;;;;;25.67;10.97;;;6.90;46.10;;;7.02;39.27;95979.38;5070432;28;20482;-57
2022/03/26 05:54:36;;;;;;;18.90;11.70;;;7.00;46.30;;;7.14;39.09;95977.78;5064434;28;20529;-57
2022/03/26 05:57:03;;;;;;;24.93;11.87;;;7.10;46.30;;;7.26;39.73;95970.97;5070198;28;20474;-57
2022/03/26 05:59:31;;;;;;;27.17;13.43;;;7.20;46.40;;;7.34;39.21;95972.22;5073911;28;20524;-57
2022/03/26 06:02:00;;;;;;;24.10;13.00;;;7.30;46.20;;;7.45;39.93;95971.56;5055213;28;20569;-58
2022/03/26 06:04:28;;;;;;;19.20;11.70;;;7.30;46.60;;;7.60;39.06;95974.16;5068262;28;20502;-58
2022/03/26 06:06:56;;;;;;;26.67;13.97;;;7.50;46.10;;;7.74;38.63;95975.94;5064870;28;20505;-57
2022/03/26 06:09:23;;;;;;;22.20;13.00;;;7.60;45.40;;;7.80;38.46;95973.78;5063211;28;20461;-57
2022/03/26 06:11:51;;;;;;;29.30;13.30;;;7.60;45.40;;;7.90;38.50;95974.88;5072121;28;20486;-56
2022/03/26 06:14:19;;;;;;;33.47;14.90;;;7.70;45.50;;;8.07;38.65;95970.34;5073930;28;20538;-58
2022/03/26 06:16:46;;;;;;;21.53;13.97;;;7.90;45.60;;;8.29;38.74;95976.84;5069321;28;20485;-58
2022/03/26 06:19:15;;;;;;;22.53;13.50;;;8.10;45.50;;;8.52;38.04;95984.13;5076537;28;20533;-58
2022/03/26 06:21:43;;;;;;;32.50;16.47;;;8.30;45.40;;;8.76;38.04;95983.44;5074165;28;20478;-57
2022/03/26 06:24:10;;;;;;;25.23;14.63;;;8.60;45.20;;;9.00;37.38;95978.38;5069782;28;20476;-58
2022/03/26 06:26:39;;;;;;;26.97;15.40;;;8.80;44.90;;;9.24;37.18;95982.91;5073358;28;20466;-57
2022/03/26 06:29:07;;;;;;;27.03;13.87;;;9.10;44.70;;;9.50;37.22;95989.00;5072693;28;20458;-57
2022/03/26 06:31:35;;;;;;;31.97;14.40;;;9.30;44.40;;;9.77;37.30;95982.75;5069840;28;20477;-57
2022/03/26 06:34:02;;;;;;;27.23;14.40;;;9.60;44.20;;;10.02;37.13;95982.72;5075110;28;20951;-58
2022/03/26 06:36:31;;;;;;;29.23;13.77;;;9.80;44.00;;;10.28;36.45;95987.91;5069758;28;20829;-57
2022/03/26 06:38:58;;;;;;;25.53;13.70;;;10.10;42.80;;;10.55;36.38;95994.75;5071466;28;20978;-57
2022/03/26 06:41:26;;;;;;;32.30;14.77;;;10.30;42.30;;;10.77;35.75;95992.25;5075698;28;20994;-57
2022/03/26 06:43:53;;;;;;;28.67;13.00;;;10.50;41.60;;;10.96;35.51;95988.25;5070690;28;20459;-57
2022/03/26 06:46:21;;;;;;;22.73;13.00;;;10.80;41.60;;;11.20;35.20;95990.00;5069011;28;20568;-57
2022/03/26 06:48:48;;;;;;;188.30;23.93;;;11.00;41.50;;;11.53;35.36;95996.31;5073908;28;20469;-58
2022/03/26 06:51:15;;;;;;;29.70;14.90;;;11.30;42.00;;;11.92;35.24;95992.38;5071333;28;20451;-58
2022/03/26 06:53:44;;;;;;;36.03;13.33;;;11.60;41.80;;;12.34;34.36;95994.38;5069962;28;20454;-62
2022/03/26 06:56:12;;;;;;;34.87;13.50;;;12.00;40.70;;;12.74;33.78;95993.78;5075135;28;20453;-58
2022/03/26 06:58:39;;;;;;;40.00;13.87;;;12.40;40.00;;;13.13;33.36;95991.47;5067146;28;20443;-58
2022/03/26 07:01:06;;;;;;;25.53;14.50;;;12.80;39.60;;;13.52;32.47;95990.91;5071215;28;20451;-58
2022/03/26 07:03:34;;;;;;;25.87;11.60;;;13.20;39.00;;;13.88;32.47;95996.66;5074814;28;20481;-59
2022/03/26 07:06:01;;;;;;;22.80;9.87;;;13.50;38.50;;;14.28;32.02;96001.13;5070960;28;20529;-59
2022/03/26 07:08:28;;;;;;;33.87;12.37;;;13.90;38.40;;;14.69;31.86;95999.31;5072788;28;21022;-59
2022/03/26 07:10:59;;;;;;;18.77;10.57;;;14.30;38.10;;;15.11;31.32;96009.66;5081259;28;20446;-59
2022/03/26 07:13:26;;;;;;;22.80;10.83;;;14.70;37.70;;;15.54;30.78;96004.88;5067952;28;20840;-58
2022/03/26 07:15:53;;;;;;;22.20;11.43;;;15.10;37.40;;;15.93;30.04;96010.94;5071882;28;20446;-58
2022/03/26 07:18:21;;;;;;;17.50;10.27;;;15.50;36.20;;;16.22;29.87;96010.00;5074445;28;20466;-58
2022/03/26 07:20:48;;;;;;;18.70;10.87;;;15.80;36.10;;;16.51;29.24;96013.50;5065473;28;20527;-55
2022/03/26 07:23:15;;;;;;;27.87;11.57;;;16.10;35.10;;;16.67;29.18;96011.03;5069084;28;20847;-57
2022/03/26 07:25:43;;;;;;;24.07;10.90;;;16.30;35.20;;;17.00;28.84;96014.88;5072413;28;20496;-57
2022/03/26 07:28:12;;;;;;;19.63;11.80;;;16.60;35.10;;;17.29;28.31;96010.28;5068638;28;20486;-56
2022/03/26 07:30:39;;;;;;;21.67;11.53;;;16.80;34.40;;;17.35;28.05;96007.88;5072854;28;20442;-57
2022/03/26 07:33:07;;;;;;;22.17;10.90;;;17.00;33.50;;;17.42;28.09;96013.41;5063243;28;20485;-58
2022/03/26 07:35:34;;;;;;;21.20;10.90;;;17.00;33.40;;;17.60;27.75;96010.72;5065532;28;20450;-57
2022/03/26 07:38:01;;;;;;;18.70;11.10;;;17.10;33.30;;;17.96;27.55;96009.84;5074454;28;20469;-56
2022/03/26 07:40:29;;;;;;;20.30;11.60;;;17.30;33.90;;;18.47;28.02;96008.06;5071531;28;20435;-58
2022/03/26 07:42:56;;;;;;;30.17;12.00;;;17.80;34.00;;;19.06;27.10;96008.09;5062504;28;20585;-57
2022/03/26 07:45:25;;;;;;;25.57;12.67;;;18.40;33.50;;;19.65;27.06;96015.13;5074146;28;20489;-57
2022/03/26 07:47:52;;;;;;;20.33;10.67;;;19.00;33.30;;;20.20;26.50;96011.72;5067970;28;20470;-58
2022/03/26 07:50:20;;;;;;;21.43;11.20;;;19.60;32.50;;;20.75;25.51;96012.66;5068118;28;20454;-58
2022/03/26 07:52:47;;;;;;;18.63;10.00;;;20.20;31.80;;;21.29;25.35;96005.66;5069175;28;20463;-58
2022/03/26 07:55:14;;;;;;;21.73;11.30;;;20.80;31.50;;;21.79;24.94;96009.59;5068573;28;20443;-56
2022/03/26 07:57:41;;;;;;;14.90;11.30;;;21.40;31.10;;;22.23;24.50;96007.16;5069256;28;20474;-57
2022/03/26 08:00:10;;;;;;;21.23;10.60;;;22.00;30.10;;;22.66;24.08;96008.16;5066586;28;20951;-56
2022/03/26 08:02:38;;;;;;;33.63;12.47;;;22.50;30.00;;;23.14;23.37;96010.41;5061370;28;20467;-56
2022/03/26 08:05:07;;;;;;;24.63;11.30;;;23.00;29.40;;;23.55;23.35;96009.78;5069156;28;20490;-57
2022/03/26 08:07:34;;;;;;;22.07;10.07;;;23.40;29.30;;;23.94;23.30;96005.78;5067554;28;20466;-56
2022/03/26 08:10:01;;;;;;;18.53;11.00;;;23.80;29.10;;;24.32;22.15;96002.72;5067008;28;20529;-59
2022/03/26 08:12:29;;;;;;;14.67;10.40;;;24.10;28.60;;;24.57;22.62;95994.19;5069102;28;20470;-58
2022/03/26 08:14:56;;;;;;;16.90;11.07;;;24.40;27.80;;;24.77;22.17;95998.81;5070951;28;20449;-58
2022/03/26 08:17:25;;;;;;;26.60;10.27;;;24.60;27.80;;;24.90;21.39;95998.06;5065591;28;20463;-58
2022/03/26 08:19:54;;;;;;;16.80;12.37;;;24.80;28.20;;;25.09;21.61;95997.25;5070454;28;21041;-58
2022/03/26 08:22:21;;;;;;;18.47;11.10;;;25.00;27.50;;;25.28;21.59;96001.03;5072671;28;20985;-59
2022/03/26 08:24:48;;;;;;;29.90;11.90;;;25.20;27.10;;;25.39;21.05;96005.88;5070041;28;20477;-58
2022/03/26 08:27:16;;;;;;;22.50;11.73;;;25.40;26.60;;;25.55;21.41;96001.13;5071150;28;20472;-59
2022/03/26 08:29:43;;;;;;;21.80;12.07;;;25.60;26.80;;;25.74;20.11;95996.75;5069787;28;20982;-58
2022/03/26 08:32:11;;;;;;;29.23;12.53;;;25.70;26.00;;;25.73;20.28;95989.69;5058616;28;21021;-62
2022/03/26 08:34:38;;;;;;;18.13;11.30;;;25.80;26.10;;;25.82;20.47;95991.16;5044122;28;20457;-63
2022/03/26 08:37:07;;;;;;;17.03;10.00;;;25.90;26.10;;;25.96;20.09;95989.28;5064555;28;21086;-57
2022/03/26 08:39:35;;;;;;;13.53;10.60;;;25.90;26.10;;;26.16;19.35;95983.88;5059215;28;20469;-61
2022/03/26 08:42:02;;;;;;;16.07;10.50;;;26.10;25.40;;;26.35;19.85;95976.78;5069438;28;20527;-61
2022/03/26 08:44:30;;;;;;;22.57;10.67;;;26.20;25.60;;;26.57;19.82;95981.91;5060421;28;20540;-60
2022/03/26 08:47:02;;;;;;;19.23;11.97;;;26.40;25.60;;;26.78;19.35;95978.13;5065717;28;20896;-68
2022/03/26 08:49:30;;;;;;;19.87;10.70;;;26.50;25.20;;;26.94;19.15;95971.41;5060422;28;20447;-60
2022/03/26 08:51:57;;;;;;;22.63;11.93;;;26.70;25.10;;;26.99;19.10;95974.28;5059311;28;20998;-56
2022/03/26 08:54:26;;;;;;;16.87;11.57;;;26.70;24.60;;;26.89;18.99;95968.53;5071854;28;21602;-58
2022/03/26 08:56:53;;;;;;;24.47;10.90;;;26.70;24.70;;;26.87;18.99;95966.03;5077727;28;20480;-57
2022/03/26 08:59:22;;;;;;;15.33;11.27;;;26.60;24.80;;;26.93;18.96;95969.75;5069726;28;20451;-55
2022/03/26 09:01:49;;;;;;;25.60;11.47;;;26.60;24.80;;;26.99;19.07;95971.59;5072799;28;20469;-59
2022/03/26 09:04:17;;;;;;;23.93;11.30;;;26.60;24.70;;;27.06;19.13;95963.44;5076825;28;20454;-56
2022/03/26 09:06:44;;;;;;;20.10;11.50;;;26.60;24.80;;;27.07;18.52;95968.63;5069591;28;20482;-56
2022/03/26 09:09:11;;;;;;;14.10;10.93;;;26.60;24.10;;;26.93;18.77;95970.56;5074718;28;20997;-56
2022/03/26 09:11:40;;;;;;;18.63;10.43;;;26.50;24.10;;;26.74;18.55;95966.09;5079566;28;20491;-59
2022/03/26 09:14:07;;;;;;;22.73;10.87;;;26.40;24.20;;;26.74;18.16;95960.69;5069787;28;20446;-59
2022/03/26 09:16:34;;;;;;;21.20;9.40;;;26.20;24.30;;;26.77;18.87;95960.25;5074490;28;20983;-56
2022/03/26 09:19:02;;;;;;;22.50;9.43;;;26.30;24.80;;;26.82;18.59;95958.59;5079626;28;20831;-58
2022/03/26 09:21:29;;;;;;;20.93;9.47;;;26.30;24.40;;;26.82;18.78;95958.59;5065800;28;20885;-57
2022/03/26 09:23:56;;;;;;;15.30;9.03;;;26.30;24.80;;;26.73;18.95;95954.47;5076240;28;20579;-58
2022/03/26 09:26:24;;;;;;;13.13;9.70;;;26.20;24.60;;;26.63;19.12;95944.13;5077174;28;20474;-59
2022/03/26 09:28:52;;;;;;;13.53;8.77;;;26.20;24.90;;;26.64;18.31;95940.34;5070562;28;20877;-57
2022/03/26 09:31:20;;;;;;;16.00;7.23;;;26.10;24.50;;;26.54;18.00;95934.59;5075148;28;20519;-57
2022/03/26 09:33:48;;;;;;;12.83;7.97;;;26.10;24.10;;;26.33;19.38;95932.19;5077552;28;20439;-57
2022/03/26 09:36:15;;;;;;;12.10;6.90;;;25.90;25.20;;;26.34;19.59;95929.28;5071796;28;20848;-56
2022/03/26 09:38:42;;;;;;;14.50;6.77;;;25.80;25.60;;;26.33;18.82;95932.19;5077795;28;20445;-57
2022/03/26 09:41:10;;;;;;;9.43;7.30;;;25.80;24.50;;;26.34;19.77;95923.88;5076806;28;20957;-59
2022/03/26 09:43:37;;;;;;;15.20;7.47;;;25.80;25.60;;;26.45;19.18;95920.53;5071988;28;20543;-60
2022/03/26 09:46:06;;;;;;;22.50;7.67;;;25.90;24.90;;;26.46;19.28;95921.34;5077354;28;20919;-57
2022/03/26 09:48:33;;;;;;;11.50;7.07;;;25.90;25.00;;;26.50;19.04;95921.75;5071890;28;21000;-57
2022/03/26 09:51:01;;;;;;;15.80;7.70;;;25.90;24.90;;;26.36;19.40;95912.88;5072736;28;20470;-60
2022/03/26 09:53:28;;;;;;;8.93;7.03;;;25.80;25.00;;;26.19;19.28;95909.84;5074869;28;20480;-56
2022/03/26 09:55:55;;;;;;;19.60;7.90;;;25.70;25.10;;;26.24;19.14;95912.72;5065906;28;20457;-60
2022/03/26 09:58:23;;;;;;;13.97;8.13;;;25.60;25.10;;;26.24;19.28;95902.78;5073059;28;20478;-57
2022/03/26 10:00:53;;;;;;;8.63;7.50;;;25.60;24.80;;;26.14;18.44;95910.47;5077216;28;21027;-57
2022/03/26 10:03:21;;;;;;;23.97;8.40;;;25.60;24.60;;;25.97;18.75;95907.38;5074823;28;20466;-56
2022/03/26 10:05:49;;;;;;;10.83;7.20;;;25.40;24.70;;;25.91;18.96;95908.22;5070060;28;20521;-58
2022/03/26 10:08:18;;;;;;;16.33;7.20;;;25.40;24.90;;;25.92;19.89;95899.09;5080755;28;21048;-57
2022/03/26 10:10:46;;;;;;;13.03;7.13;;;25.40;25.30;;;26.10;19.88;95904.69;5069686;28;21006;-57
2022/03/26 10:13:13;;;;;;;16.20;7.50;;;25.50;25.40;;;26.30;19.55;95906.47;5073131;28;20889;-57
2022/03/26 10:16:01;;;;;;;12.17;6.60;;;25.60;25.30;;;26.61;19.19;95903.00;5078142;28;20457;-57
2022/03/26 10:18:37;;;;;;;9.97;6.67;;;25.90;25.20;;;26.81;18.63;95894.84;5066931;28;20466;-55
2022/03/26 10:21:07;;;;;;;17.93;6.80;;;26.10;24.90;;;26.95;18.55;95887.47;5074500;28;20840;-58